Almagrundet, Sweden

7:35 AM CET on February 01, 2015 (GMT +0100)
Saltaro | Change Station
CLOSE
Current Station
Personal Weather Station
Location: Saltaro, VARMDO
Elevation: 46 ft
Nearby Weather Stations

Elev 46 ft 59.34 °N, 18.62 °E | Updated 49 seconds ago

Light Snow
Light Snow
35.2 °F
Feels Like 35 °F
N
1.6
Wind Variable Wind from NW
Gusts 3.1 mph

Today
High -- | Low -- °F
--% Chance of Precip.
Yesterday
High -- | Low -- °F
Precip. -- in
7:53 AM 4:01 PM
Waxing Gibbous, 93% visible
Pressure 28.71 in
Visibility -9999.0 miles
Clouds Overcast 400 ft
Windchill 35 °F
Dew Point 31 °F
Humidity 85%
Rainfall 0.00 in
Snow Depth Not available.
UV 0 out of 12
Pollen Not available.
Air Quality Not available.
Flu Activity Not available.
METAR ESSB 010620Z AUTO 35006KT 4200 -SN OVC004/// 00/00 Q0972

More Conditions Fewer Conditions

Pressure 28.71 in
Visibility -9999.0 miles
Clouds Overcast 400 ft
Windchill 35 °F
Dew Point 31 °F
Humidity 85%
Rainfall 0.00 in
Snow Depth Not available.
UV 0 out of 12
Pollen Not available.
Air Quality Not available.
Flu Activity Not available.
METAR ESSB 010620Z AUTO 35006KT 4200 -SN OVC004/// 00/00 Q0972

More Conditions Fewer Conditions

10-Day Weather Forecast

Almanac

Astronomy

Feb. 01, 2015 Rise Set
Actual Time
Civil Twilight
Nautical Twilight
Astronomical Twilight
Moon
Length of Visible Light
Length of Day
Tomorrow will be .
, % of the Moon is Illuminated

Today's Extremes

Country Highs Country Lows

Community

WunderPhotos

Upload Photos

1,792,323 photos uploaded!

WunderBlogs® & News

Nearby

Air Quality

  Air Quality AQ Index Pollutant
Not available.

Snow Depth

Station Depth Elevation

Earthquake Activity

City Distance Mag. Time & Date
Minimum magnitude displayed is 2.5.

Coastal Water Temperatures

Place Temperature

Nearby Weather Stations